Time;durP1;ratioP1;P1;durP2;ratioP2;P2;SDS_P1;SDS_P2;PMS_P1;PMS_P2;Temp;Humidity;BMP_temperature;BMP_pressure;BME280_temperature;BME280_humidity;BME280_pressure;Samples;Min_cycle;Max_cycle;Signal;HPM_P1;HPM_P2
2021/12/16 00:08:04;;;;;;;311.88;53.00;;;;;;;;;;5037893;28;20028;-72
2021/12/16 00:10:38;;;;;;;300.15;50.47;;;;;;;;;;5035485;28;20482;-72
2021/12/16 00:34:42;;;;;;;414.90;55.83;;;;;;;;;;5037719;28;20537;-73
2021/12/16 00:37:09;;;;;;;331.88;49.25;;;;;;;;;;5038686;28;20021;-73
2021/12/16 00:39:36;;;;;;;299.83;49.72;;;;;;;;;;5038003;28;20047;-73
2021/12/16 00:42:09;;;;;;;293.25;49.88;;;;;;;;;;5036739;28;20062;-73
2021/12/16 00:47:33;;;;;;;341.75;51.85;;;;;;;;;;5034877;28;20037;-72
2021/12/16 00:55:42;;;;;;;314.75;47.42;;;;;;;;;;5039080;28;20237;-72
2021/12/16 00:58:08;;;;;;;465.90;52.72;;;;;;;;;;5038134;28;20150;-72
2021/12/16 01:00:35;;;;;;;460.98;53.47;;;;;;;;;;5035509;28;20033;-72
2021/12/16 01:46:30;;;;;;;412.08;46.30;;;;;;;;;;4964597;28;20130;-72
2021/12/16 01:57:19;;;;;;;245.68;48.05;;;;;;;;;;5040786;28;20029;-74
2021/12/16 01:59:48;;;;;;;215.27;44.72;;;;;;;;;;5042236;28;20027;-71
2021/12/16 02:02:32;;;;;;;386.90;47.40;;;;;;;;;;5040327;28;20439;-72
2021/12/16 02:07:57;;;;;;;143.20;38.90;;;;;;;;;;5039548;28;20053;-73
2021/12/16 02:10:24;;;;;;;212.52;40.55;;;;;;;;;;5040961;28;20589;-73
2021/12/16 02:13:15;;;;;;;157.02;39.05;;;;;;;;;;5041343;28;20033;-71
2021/12/16 02:34:31;;;;;;;213.45;45.33;;;;;;;;;;5041755;28;20092;-71
2021/12/16 02:36:57;;;;;;;241.93;46.70;;;;;;;;;;5042268;28;20013;-72
2021/12/16 02:39:31;;;;;;;763.95;67.45;;;;;;;;;;5039456;28;21103;-72
2021/12/16 02:42:00;;;;;;;274.45;44.60;;;;;;;;;;5039908;28;20576;-72
2021/12/16 02:49:44;;;;;;;698.08;64.40;;;;;;;;;;5039614;28;20116;-71
2021/12/16 02:52:11;;;;;;;232.35;43.08;;;;;;;;;;5040349;28;20041;-71
2021/12/16 02:54:37;;;;;;;195.07;44.25;;;;;;;;;;5038268;28;20056;-73
2021/12/16 02:57:04;;;;;;;708.80;59.63;;;;;;;;;;5039847;28;20036;-71
2021/12/16 02:59:31;;;;;;;343.73;42.33;;;;;;;;;;5040133;28;20490;-73
2021/12/16 03:02:01;;;;;;;250.15;38.13;;;;;;;;;;5042510;28;20025;-72
2021/12/16 03:04:29;;;;;;;416.52;48.95;;;;;;;;;;5039829;28;20039;-71
2021/12/16 03:06:57;;;;;;;390.83;46.70;;;;;;;;;;5039143;28;20571;-73
2021/12/16 03:09:52;;;;;;;293.52;41.78;;;;;;;;;;5025113;28;20490;-73
2021/12/16 03:15:04;;;;;;;399.98;47.55;;;;;;;;;;5051738;28;20132;-72
2021/12/16 03:17:42;;;;;;;441.08;50.72;;;;;;;;;;5052991;28;20095;-72
2021/12/16 03:20:16;;;;;;;588.95;58.60;;;;;;;;;;5040650;28;20117;-71
2021/12/16 03:36:25;;;;;;;512.38;56.05;;;;;;;;;;5039580;28;20056;-71
2021/12/16 03:38:54;;;;;;;566.55;61.03;;;;;;;;;;5037962;28;20028;-71
2021/12/16 03:41:20;;;;;;;824.72;76.55;;;;;;;;;;5039834;28;20077;-71
2021/12/16 03:43:47;;;;;;;573.95;60.22;;;;;;;;;;5039625;28;20037;-71
2021/12/16 03:49:01;;;;;;;452.75;54.92;;;;;;;;;;5040683;28;20043;-72
2021/12/16 03:51:30;;;;;;;547.53;57.97;;;;;;;;;;5040175;28;20148;-71
2021/12/16 03:53:59;;;;;;;560.10;59.42;;;;;;;;;;5040655;28;20490;-71
2021/12/16 03:56:26;;;;;;;299.25;48.85;;;;;;;;;;5041837;28;20056;-72
2021/12/16 03:58:52;;;;;;;674.60;60.40;;;;;;;;;;5037772;28;20035;-71
2021/12/16 04:01:20;;;;;;;619.38;59.55;;;;;;;;;;5038876;28;20137;-72
2021/12/16 04:03:46;;;;;;;503.50;54.78;;;;;;;;;;5042221;28;20410;-72
2021/12/16 04:06:13;;;;;;;667.75;66.50;;;;;;;;;;5040168;28;20511;-71
2021/12/16 04:08:39;;;;;;;572.50;52.88;;;;;;;;;;5038084;28;20030;-73
2021/12/16 04:11:11;;;;;;;320.75;45.47;;;;;;;;;;5027852;28;20097;-73
2021/12/16 04:13:52;;;;;;;447.30;48.63;;;;;;;;;;5039428;28;20056;-74
2021/12/16 04:16:19;;;;;;;385.73;41.15;;;;;;;;;;5035240;28;20490;-71
2021/12/16 04:18:45;;;;;;;447.73;41.95;;;;;;;;;;5043340;28;20025;-72
2021/12/16 04:21:11;;;;;;;394.98;38.13;;;;;;;;;;5039180;28;20099;-71
2021/12/16 04:23:37;;;;;;;575.53;47.33;;;;;;;;;;5035240;28;20565;-73
2021/12/16 04:26:04;;;;;;;306.73;37.75;;;;;;;;;;5037684;28;20088;-73
2021/12/16 04:28:30;;;;;;;425.73;45.58;;;;;;;;;;5038114;28;20029;-72
2021/12/16 04:30:57;;;;;;;525.35;46.00;;;;;;;;;;5036369;28;20040;-72
2021/12/16 04:33:23;;;;;;;500.10;46.75;;;;;;;;;;5037054;28;20688;-72
2021/12/16 04:35:49;;;;;;;370.33;42.47;;;;;;;;;;5040022;28;20074;-73
2021/12/16 04:38:16;;;;;;;274.10;37.35;;;;;;;;;;5033218;28;20032;-71
2021/12/16 04:40:48;;;;;;;367.88;40.95;;;;;;;;;;5037494;28;20052;-71
2021/12/16 04:43:20;;;;;;;350.05;39.35;;;;;;;;;;5034152;28;20017;-72
2021/12/16 04:45:46;;;;;;;419.67;40.45;;;;;;;;;;5040586;28;20402;-73
2021/12/16 04:48:12;;;;;;;296.08;39.65;;;;;;;;;;5035384;28;20026;-72
2021/12/16 04:50:39;;;;;;;543.75;50.67;;;;;;;;;;5034094;28;20086;-71
2021/12/16 04:53:05;;;;;;;606.75;54.15;;;;;;;;;;5035506;28;20021;-71
2021/12/16 04:55:31;;;;;;;205.52;38.47;;;;;;;;;;5050132;28;20331;-72
2021/12/16 04:57:57;;;;;;;458.92;52.05;;;;;;;;;;5053759;28;20053;-73
2021/12/16 05:00:24;;;;;;;332.67;45.10;;;;;;;;;;5034439;28;20033;-71
2021/12/16 05:02:51;;;;;;;353.00;51.97;;;;;;;;;;5038885;28;20033;-71
2021/12/16 05:05:17;;;;;;;641.35;62.67;;;;;;;;;;5034429;28;20087;-71
2021/12/16 05:07:44;;;;;;;658.05;63.47;;;;;;;;;;5038418;28;20033;-72
2021/12/16 05:10:12;;;;;;;503.90;56.92;;;;;;;;;;5036587;28;20043;-73
2021/12/16 05:12:44;;;;;;;562.85;58.58;;;;;;;;;;5038357;28;20036;-72
2021/12/16 05:15:12;;;;;;;700.47;55.60;;;;;;;;;;5040061;28;20094;-72
2021/12/16 05:17:45;;;;;;;639.30;60.92;;;;;;;;;;5038193;28;20025;-72
2021/12/16 05:20:14;;;;;;;271.95;44.13;;;;;;;;;;5035547;28;20146;-72
2021/12/16 05:28:11;;;;;;;387.35;43.88;;;;;;;;;;5035426;28;20184;-72
2021/12/16 05:30:37;;;;;;;461.88;45.45;;;;;;;;;;5038294;28;20524;-71
2021/12/16 05:33:03;;;;;;;380.73;42.45;;;;;;;;;;5037533;28;20033;-72
2021/12/16 05:35:30;;;;;;;352.88;39.13;;;;;;;;;;5038989;28;20449;-73
2021/12/16 05:37:56;;;;;;;195.35;34.38;;;;;;;;;;5036229;28;20049;-72
2021/12/16 05:40:24;;;;;;;239.80;37.70;;;;;;;;;;5034800;28;20541;-72
2021/12/16 05:42:51;;;;;;;241.70;37.60;;;;;;;;;;5034673;28;20056;-72
2021/12/16 05:45:18;;;;;;;407.05;43.45;;;;;;;;;;5039364;28;20033;-72
2021/12/16 05:47:44;;;;;;;191.00;36.33;;;;;;;;;;5037939;28;20035;-72
2021/12/16 05:50:10;;;;;;;180.25;33.40;;;;;;;;;;5036903;28;20040;-72
2021/12/16 05:52:37;;;;;;;180.52;33.38;;;;;;;;;;5037359;28;20120;-72
2021/12/16 05:55:05;;;;;;;241.40;34.85;;;;;;;;;;5039777;28;20429;-72
2021/12/16 05:57:31;;;;;;;192.27;33.17;;;;;;;;;;5043275;28;20124;-72
2021/12/16 05:59:57;;;;;;;315.42;38.15;;;;;;;;;;5058713;28;20441;-72
2021/12/16 06:02:23;;;;;;;441.58;40.95;;;;;;;;;;5039120;28;20179;-73
2021/12/16 06:04:50;;;;;;;561.80;48.08;;;;;;;;;;5044757;28;20037;-72
2021/12/16 06:07:17;;;;;;;433.73;40.25;;;;;;;;;;5042113;28;20036;-72
2021/12/16 06:09:44;;;;;;;389.98;36.38;;;;;;;;;;5044894;28;20596;-71
2021/12/16 06:12:10;;;;;;;310.10;34.28;;;;;;;;;;5039732;28;20021;-72
2021/12/16 06:14:50;;;;;;;431.20;38.60;;;;;;;;;;5043612;28;20029;-73
2021/12/16 06:28:16;;;;;;;219.50;36.10;;;;;;;;;;5039076;28;20098;-73
2021/12/16 06:30:44;;;;;;;236.88;33.17;;;;;;;;;;5041529;28;20059;-72
2021/12/16 06:33:12;;;;;;;315.27;35.53;;;;;;;;;;5041669;28;20025;-72
2021/12/16 06:35:39;;;;;;;319.33;34.63;;;;;;;;;;5040103;28;20044;-72
2021/12/16 06:38:05;;;;;;;396.40;39.00;;;;;;;;;;5042287;28;20021;-72
2021/12/16 06:40:31;;;;;;;477.88;42.60;;;;;;;;;;5036172;28;20372;-71
2021/12/16 06:42:59;;;;;;;450.45;39.35;;;;;;;;;;5040087;28;20048;-71
2021/12/16 06:45:30;;;;;;;493.38;42.75;;;;;;;;;;5038677;28;20068;-72
2021/12/16 06:48:07;;;;;;;400.45;43.53;;;;;;;;;;5039593;28;20029;-72
2021/12/16 06:50:52;;;;;;;396.38;42.75;;;;;;;;;;5033811;28;20038;-72
2021/12/16 06:53:27;;;;;;;140.57;34.22;;;;;;;;;;5038702;28;20036;-72
2021/12/16 06:56:12;;;;;;;293.10;40.78;;;;;;;;;;5039703;28;20119;-71
2021/12/16 06:58:46;;;;;;;482.02;47.50;;;;;;;;;;5035927;28;20033;-71
2021/12/16 07:01:18;;;;;;;372.58;42.45;;;;;;;;;;5040540;28;20025;-71
2021/12/16 07:03:48;;;;;;;429.92;41.72;;;;;;;;;;5041712;28;20033;-71
2021/12/16 07:06:16;;;;;;;234.63;39.95;;;;;;;;;;5034891;28;20542;-71
2021/12/16 07:08:43;;;;;;;231.60;33.63;;;;;;;;;;5039654;28;20049;-72
2021/12/16 07:11:10;;;;;;;392.67;37.88;;;;;;;;;;5035181;28;20069;-72
2021/12/16 07:13:40;;;;;;;428.63;44.03;;;;;;;;;;5025445;28;20036;-71
2021/12/16 07:16:07;;;;;;;599.53;52.53;;;;;;;;;;5034582;28;20060;-71
2021/12/16 07:18:33;;;;;;;199.20;32.42;;;;;;;;;;5035877;28;20033;-71
2021/12/16 07:20:59;;;;;;;98.47;28.05;;;;;;;;;;5035999;28;20030;-72
2021/12/16 07:23:25;;;;;;;175.90;32.60;;;;;;;;;;5036791;28;20033;-72
2021/12/16 07:25:52;;;;;;;352.88;45.10;;;;;;;;;;5040914;28;20044;-72
2021/12/16 07:28:18;;;;;;;398.73;45.63;;;;;;;;;;5039822;28;20387;-72
2021/12/16 07:30:45;;;;;;;355.42;42.15;;;;;;;;;;5037552;28;20033;-71
2021/12/16 07:33:12;;;;;;;267.30;39.17;;;;;;;;;;5038567;28;20036;-71
2021/12/16 07:35:39;;;;;;;277.40;36.10;;;;;;;;;;5032947;28;20045;-71
2021/12/16 07:38:06;;;;;;;268.63;35.35;;;;;;;;;;5040385;28;20466;-72
2021/12/16 07:40:33;;;;;;;139.57;27.33;;;;;;;;;;5035251;28;20128;-71
2021/12/16 07:45:27;;;;;;;143.93;25.48;;;;;;;;;;5034581;28;20175;-72
2021/12/16 07:47:53;;;;;;;170.05;27.80;;;;;;;;;;5037845;28;20032;-71
2021/12/16 07:50:19;;;;;;;240.75;30.98;;;;;;;;;;5036251;28;20042;-72
2021/12/16 07:52:45;;;;;;;150.65;27.20;;;;;;;;;;5035227;28;20157;-72
2021/12/16 07:55:12;;;;;;;238.75;29.70;;;;;;;;;;5032078;28;20136;-71
2021/12/16 07:57:38;;;;;;;246.70;30.58;;;;;;;;;;5050954;28;20026;-72
2021/12/16 08:00:06;;;;;;;164.98;26.85;;;;;;;;;;5035030;28;20037;-71
2021/12/16 08:02:32;;;;;;;255.43;35.58;;;;;;;;;;5036757;28;20068;-72
2021/12/16 08:04:58;;;;;;;283.55;32.83;;;;;;;;;;5037776;28;20112;-72
2021/12/16 08:07:24;;;;;;;239.82;31.75;;;;;;;;;;5040716;28;20059;-71
2021/12/16 08:09:50;;;;;;;413.73;43.88;;;;;;;;;;5034052;28;20041;-71
2021/12/16 08:12:18;;;;;;;356.08;37.60;;;;;;;;;;5037794;28;20087;-71
2021/12/16 08:14:45;;;;;;;258.42;36.60;;;;;;;;;;5038290;28;20032;-71
2021/12/16 08:17:11;;;;;;;347.42;34.97;;;;;;;;;;5034051;28;20186;-71
2021/12/16 08:19:37;;;;;;;351.75;35.00;;;;;;;;;;5036402;28;20032;-71
2021/12/16 08:22:04;;;;;;;275.00;32.85;;;;;;;;;;5031991;28;20117;-71
2021/12/16 08:24:30;;;;;;;279.00;33.70;;;;;;;;;;5039333;28;20025;-72
2021/12/16 08:26:56;;;;;;;193.52;30.50;;;;;;;;;;5035364;28;20257;-72
2021/12/16 08:29:24;;;;;;;158.30;29.50;;;;;;;;;;5041322;28;20029;-71
2021/12/16 08:31:50;;;;;;;109.43;28.98;;;;;;;;;;5037755;28;20024;-71
2021/12/16 08:34:17;;;;;;;120.88;26.27;;;;;;;;;;5036602;28;20032;-71
2021/12/16 08:36:45;;;;;;;79.40;24.98;;;;;;;;;;5030706;28;20038;-72
2021/12/16 08:39:11;;;;;;;107.28;29.98;;;;;;;;;;5026741;28;20029;-71
2021/12/16 08:41:39;;;;;;;110.32;30.55;;;;;;;;;;5036914;28;20075;-73
2021/12/16 08:44:05;;;;;;;104.97;31.92;;;;;;;;;;5036601;28;20079;-72
2021/12/16 08:46:35;;;;;;;112.57;31.02;;;;;;;;;;5032480;28;20044;-72
2021/12/16 08:49:01;;;;;;;152.07;33.45;;;;;;;;;;5033530;28;20029;-72
2021/12/16 08:51:30;;;;;;;99.05;31.88;;;;;;;;;;5039220;28;20552;-72
2021/12/16 08:53:56;;;;;;;116.25;32.45;;;;;;;;;;5036795;28;20418;-71
2021/12/16 08:56:22;;;;;;;124.53;32.80;;;;;;;;;;5037997;28;20555;-71
2021/12/16 08:58:49;;;;;;;165.18;36.90;;;;;;;;;;5037087;28;20056;-71
2021/12/16 09:01:19;;;;;;;150.10;35.10;;;;;;;;;;5042233;28;20074;-71
2021/12/16 09:03:45;;;;;;;303.27;42.05;;;;;;;;;;5036862;28;20544;-71
2021/12/16 09:06:11;;;;;;;257.80;40.20;;;;;;;;;;5035619;28;20067;-73
2021/12/16 09:08:38;;;;;;;300.80;41.88;;;;;;;;;;5034261;28;20132;-72
2021/12/16 09:11:07;;;;;;;220.95;38.08;;;;;;;;;;5037219;28;20032;-72
2021/12/16 09:13:33;;;;;;;161.88;33.65;;;;;;;;;;5036820;28;20040;-72
2021/12/16 09:16:01;;;;;;;157.05;34.95;;;;;;;;;;5036613;28;20033;-72
2021/12/16 09:18:29;;;;;;;173.95;33.60;;;;;;;;;;5033510;28;20017;-72
2021/12/16 09:20:57;;;;;;;217.32;38.45;;;;;;;;;;5038117;28;20022;-71
2021/12/16 09:23:23;;;;;;;213.05;37.58;;;;;;;;;;5041539;28;20025;-71
2021/12/16 09:25:50;;;;;;;306.08;47.30;;;;;;;;;;5036376;28;20037;-71
2021/12/16 09:28:17;;;;;;;255.43;45.70;;;;;;;;;;5034975;28;20123;-72
2021/12/16 09:30:43;;;;;;;166.77;36.55;;;;;;;;;;5037049;28;20055;-72
2021/12/16 09:33:14;;;;;;;157.00;37.95;;;;;;;;;;5041076;28;20033;-73
2021/12/16 09:35:40;;;;;;;143.80;38.75;;;;;;;;;;5041689;28;20677;-72
2021/12/16 09:38:09;;;;;;;140.98;38.63;;;;;;;;;;5036676;28;20025;-72
2021/12/16 09:40:39;;;;;;;117.60;38.15;;;;;;;;;;5038930;28;20249;-72
2021/12/16 09:43:06;;;;;;;116.60;40.17;;;;;;;;;;5036084;28;20033;-72
2021/12/16 09:45:32;;;;;;;132.63;40.88;;;;;;;;;;5040268;28;20066;-72
2021/12/16 09:47:59;;;;;;;124.22;41.20;;;;;;;;;;5041338;28;20112;-72
2021/12/16 09:50:27;;;;;;;106.18;42.75;;;;;;;;;;5036910;28;20051;-71
2021/12/16 09:52:54;;;;;;;110.80;44.30;;;;;;;;;;5035719;28;20408;-72
2021/12/16 09:55:20;;;;;;;118.65;44.10;;;;;;;;;;5033469;28;20083;-72
2021/12/16 09:57:47;;;;;;;124.03;45.53;;;;;;;;;;5036577;28;20127;-72
2021/12/16 10:00:15;;;;;;;121.18;45.22;;;;;;;;;;5042903;28;20029;-72
2021/12/16 10:02:41;;;;;;;122.35;48.00;;;;;;;;;;5038245;28;20186;-72
2021/12/16 10:05:08;;;;;;;146.55;49.22;;;;;;;;;;5043338;28;20057;-72
2021/12/16 10:07:35;;;;;;;119.28;50.30;;;;;;;;;;5042810;28;20029;-72
2021/12/16 10:10:11;;;;;;;126.70;49.30;;;;;;;;;;5058000;28;20230;-72
2021/12/16 10:12:43;;;;;;;143.38;50.92;;;;;;;;;;5039455;28;20040;-72
2021/12/16 10:17:56;;;;;;;125.10;49.78;;;;;;;;;;5037360;28;20124;-72
2021/12/16 10:20:27;;;;;;;125.80;47.72;;;;;;;;;;5054671;28;20025;-70
2021/12/16 10:23:01;;;;;;;146.68;51.00;;;;;;;;;;5041617;28;20525;-72
2021/12/16 10:25:30;;;;;;;148.38;54.55;;;;;;;;;;5031838;28;20025;-70
2021/12/16 10:27:59;;;;;;;183.45;59.70;;;;;;;;;;5038886;28;20466;-71
2021/12/16 10:30:26;;;;;;;168.07;59.08;;;;;;;;;;5040641;28;20087;-71
2021/12/16 10:32:54;;;;;;;173.57;57.60;;;;;;;;;;5036979;28;20122;-70
2021/12/16 10:35:29;;;;;;;185.82;59.35;;;;;;;;;;5036520;28;20021;-72
2021/12/16 10:37:57;;;;;;;165.57;60.78;;;;;;;;;;5035699;28;20118;-71
2021/12/16 10:40:29;;;;;;;179.13;61.78;;;;;;;;;;5035437;28;20098;-71
2021/12/16 10:42:56;;;;;;;163.32;59.90;;;;;;;;;;5037865;28;20104;-70
2021/12/16 10:45:27;;;;;;;189.07;66.22;;;;;;;;;;5036072;28;20025;-71
2021/12/16 10:48:11;;;;;;;184.73;65.22;;;;;;;;;;5036143;28;20030;-71
2021/12/16 10:51:10;;;;;;;180.77;64.03;;;;;;;;;;5034272;28;20037;-70
2021/12/16 10:54:02;;;;;;;164.88;61.33;;;;;;;;;;5010804;28;20051;-71
2021/12/16 10:56:28;;;;;;;188.27;63.75;;;;;;;;;;5034191;28;20103;-71
2021/12/16 10:58:54;;;;;;;173.50;63.70;;;;;;;;;;5038226;28;20457;-71
2021/12/16 11:01:35;;;;;;;171.77;62.42;;;;;;;;;;5034971;28;20025;-71
2021/12/16 11:04:01;;;;;;;157.07;60.83;;;;;;;;;;5035524;28;20115;-71
2021/12/16 11:06:28;;;;;;;158.70;57.42;;;;;;;;;;5040272;28;20072;-70
2021/12/16 11:08:54;;;;;;;168.38;58.45;;;;;;;;;;5037936;28;20041;-70
2021/12/16 11:11:30;;;;;;;144.27;55.58;;;;;;;;;;5035263;28;20045;-70
2021/12/16 11:14:04;;;;;;;170.43;57.97;;;;;;;;;;5031588;28;20048;-70
2021/12/16 11:16:34;;;;;;;159.70;59.42;;;;;;;;;;5036061;28;20029;-71
2021/12/16 11:19:00;;;;;;;171.82;57.83;;;;;;;;;;5042002;28;20024;-70
2021/12/16 11:21:40;;;;;;;153.48;56.22;;;;;;;;;;5038390;28;20076;-71
2021/12/16 11:24:22;;;;;;;128.00;51.42;;;;;;;;;;5035233;28;20055;-71
2021/12/16 11:26:49;;;;;;;152.95;55.70;;;;;;;;;;5039536;28;20090;-71
2021/12/16 11:29:15;;;;;;;157.15;58.40;;;;;;;;;;5037731;28;20025;-71
2021/12/16 11:31:43;;;;;;;151.98;57.83;;;;;;;;;;5037269;28;20501;-71
2021/12/16 11:34:10;;;;;;;128.63;52.83;;;;;;;;;;5039541;28;20390;-72
2021/12/16 11:36:40;;;;;;;129.70;54.55;;;;;;;;;;5042568;28;20040;-69
2021/12/16 11:39:23;;;;;;;134.60;56.63;;;;;;;;;;5031133;28;20025;-72
2021/12/16 11:41:56;;;;;;;115.32;52.25;;;;;;;;;;5037187;28;20048;-71
2021/12/16 11:44:24;;;;;;;126.75;54.05;;;;;;;;;;5037773;28;20029;-71
2021/12/16 11:46:56;;;;;;;107.03;50.83;;;;;;;;;;5035183;28;20123;-72
2021/12/16 11:49:27;;;;;;;119.97;52.05;;;;;;;;;;5036612;28;20021;-71
2021/12/16 11:51:56;;;;;;;110.63;51.38;;;;;;;;;;5037991;28;20025;-72
2021/12/16 11:54:28;;;;;;;115.43;52.65;;;;;;;;;;5042193;28;20021;-72
2021/12/16 11:57:00;;;;;;;106.85;50.22;;;;;;;;;;5041196;28;20433;-71
2021/12/16 11:59:31;;;;;;;119.93;50.63;;;;;;;;;;5037975;28;20052;-72
2021/12/16 12:01:58;;;;;;;99.32;47.35;;;;;;;;;;5042624;28;20049;-71
2021/12/16 12:04:36;;;;;;;113.18;51.20;;;;;;;;;;5054917;28;20052;-72
2021/12/16 12:07:12;;;;;;;116.50;50.35;;;;;;;;;;5040042;28;20052;-72
2021/12/16 12:09:43;;;;;;;92.78;48.42;;;;;;;;;;5042469;28;20048;-72
2021/12/16 12:12:10;;;;;;;107.05;49.65;;;;;;;;;;5041751;28;20568;-72
2021/12/16 12:14:37;;;;;;;104.88;49.15;;;;;;;;;;5039706;28;20071;-72
2021/12/16 12:17:11;;;;;;;110.55;50.22;;;;;;;;;;5040540;28;20029;-71
2021/12/16 12:19:42;;;;;;;122.22;52.88;;;;;;;;;;5037831;28;20025;-71
2021/12/16 12:22:08;;;;;;;94.18;45.83;;;;;;;;;;5041606;28;20029;-71
2021/12/16 12:24:34;;;;;;;70.35;38.30;;;;;;;;;;5026829;28;20052;-70
2021/12/16 12:27:11;;;;;;;57.75;32.00;;;;;;;;;;5041321;28;20420;-70
2021/12/16 12:29:39;;;;;;;50.13;28.02;;;;;;;;;;5040993;28;20024;-72
2021/12/16 12:32:05;;;;;;;45.50;24.10;;;;;;;;;;5042781;28;20074;-72
2021/12/16 12:34:33;;;;;;;44.78;22.83;;;;;;;;;;5038412;28;20037;-70
2021/12/16 12:37:01;;;;;;;40.22;22.10;;;;;;;;;;5042547;28;20029;-70
2021/12/16 12:39:33;;;;;;;36.75;20.15;;;;;;;;;;5034448;28;20036;-70
2021/12/16 12:41:59;;;;;;;34.30;21.17;;;;;;;;;;5038114;28;20127;-70
2021/12/16 12:44:25;;;;;;;32.60;19.65;;;;;;;;;;5040585;28;20040;-71
2021/12/16 12:46:52;;;;;;;38.50;20.33;;;;;;;;;;5034724;28;20033;-70
2021/12/16 12:49:25;;;;;;;32.83;20.85;;;;;;;;;;5037549;28;20029;-72
2021/12/16 12:51:52;;;;;;;31.77;19.58;;;;;;;;;;5039206;28;20840;-71
2021/12/16 12:54:29;;;;;;;41.20;20.35;;;;;;;;;;5035792;28;20030;-71
2021/12/16 12:57:01;;;;;;;40.90;22.52;;;;;;;;;;5044071;28;20033;-71
2021/12/16 12:59:39;;;;;;;44.47;21.98;;;;;;;;;;5038287;28;20025;-72
2021/12/16 13:02:16;;;;;;;42.47;23.20;;;;;;;;;;5035843;28;20098;-70
2021/12/16 13:04:54;;;;;;;43.55;24.20;;;;;;;;;;5042525;28;20439;-72
2021/12/16 13:07:30;;;;;;;45.45;23.63;;;;;;;;;;5045482;28;20108;-72
2021/12/16 13:09:57;;;;;;;45.08;22.95;;;;;;;;;;5041939;28;20029;-72
2021/12/16 13:12:30;;;;;;;46.25;24.00;;;;;;;;;;5040226;28;20029;-72
2021/12/16 13:15:06;;;;;;;44.30;23.25;;;;;;;;;;5046699;28;20116;-71
2021/12/16 13:23:22;;;;;;;50.15;25.95;;;;;;;;;;5042793;28;20517;-72
2021/12/16 13:23:31;;;;;;;46.42;24.58;;;;;;;;;;5038046;28;20036;-72
2021/12/16 13:29:39;;;;;;;49.10;24.67;;;;;;;;;;5025908;28;20041;-71
2021/12/16 13:32:09;;;;;;;50.63;25.15;;;;;;;;;;5041545;28;20029;-72
2021/12/16 13:34:47;;;;;;;48.40;26.13;;;;;;;;;;5041014;28;20041;-71
2021/12/16 13:37:21;;;;;;;51.92;26.85;;;;;;;;;;5043276;28;20071;-71
2021/12/16 13:39:49;;;;;;;50.55;25.55;;;;;;;;;;5046541;28;20056;-72
2021/12/16 13:42:15;;;;;;;50.90;26.70;;;;;;;;;;5045402;28;20439;-74
2021/12/16 13:44:47;;;;;;;57.78;25.05;;;;;;;;;;5042586;28;20144;-72
2021/12/16 14:06:37;;;;;;;44.97;25.70;;;;;;;;;;5039790;28;20143;-72
2021/12/16 14:09:14;;;;;;;48.40;26.00;;;;;;;;;;5040093;28;20726;-71
2021/12/16 14:17:42;;;;;;;54.58;25.55;;;;;;;;;;5041386;28;20545;-72
2021/12/16 14:23:14;;;;;;;49.40;25.23;;;;;;;;;;5041686;28;20563;-72
2021/12/16 14:41:42;;;;;;;53.53;26.00;;;;;;;;;;5040141;28;20043;-72
2021/12/16 14:46:44;;;;;;;53.95;28.08;;;;;;;;;;5038619;28;20061;-72
2021/12/16 14:49:11;;;;;;;63.33;28.23;;;;;;;;;;5040888;28;20545;-72
2021/12/16 14:51:37;;;;;;;58.58;28.80;;;;;;;;;;5041702;28;20119;-72
2021/12/16 14:54:03;;;;;;;62.35;29.63;;;;;;;;;;5039164;28;20029;-72
2021/12/16 14:56:33;;;;;;;68.85;30.65;;;;;;;;;;5029696;28;20155;-72
2021/12/16 14:59:02;;;;;;;77.53;33.23;;;;;;;;;;5042037;28;20025;-72
2021/12/16 15:01:30;;;;;;;62.92;30.15;;;;;;;;;;5044062;28;20032;-71
2021/12/16 15:03:56;;;;;;;71.07;32.33;;;;;;;;;;5040023;28;20033;-73
2021/12/16 15:06:29;;;;;;;61.90;31.48;;;;;;;;;;5043502;28;20470;-72
2021/12/16 15:11:36;;;;;;;62.45;30.88;;;;;;;;;;5038460;28;20028;-71
2021/12/16 15:14:08;;;;;;;73.57;32.75;;;;;;;;;;5056312;28;20078;-71
2021/12/16 15:44:14;;;;;;;82.03;35.13;;;;;;;;;;5043584;28;20027;-72
2021/12/16 15:46:41;;;;;;;107.72;39.28;;;;;;;;;;5039717;28;20025;-72
2021/12/16 15:49:08;;;;;;;93.60;38.05;;;;;;;;;;5044213;28;20079;-72
2021/12/16 15:51:34;;;;;;;96.47;35.38;;;;;;;;;;5035204;28;20029;-72
2021/12/16 15:54:01;;;;;;;96.57;38.15;;;;;;;;;;5039751;28;20402;-72
2021/12/16 15:56:37;;;;;;;104.95;39.65;;;;;;;;;;5043751;28;20033;-71
2021/12/16 15:59:09;;;;;;;110.82;39.83;;;;;;;;;;5043576;28;20025;-71
2021/12/16 16:01:41;;;;;;;110.85;40.50;;;;;;;;;;5038736;28;20048;-72
2021/12/16 16:04:17;;;;;;;128.20;42.47;;;;;;;;;;5036546;28;20045;-73
2021/12/16 16:06:48;;;;;;;123.00;43.28;;;;;;;;;;5041035;28;20087;-73
2021/12/16 16:09:15;;;;;;;;;;;;;;;;;;5038866;28;20037;-71
2021/12/16 16:11:44;;;;;;;119.65;41.72;;;;;;;;;;5047732;28;19923;-72
2021/12/16 16:14:12;;;;;;;119.25;43.70;;;;;;;;;;5040128;28;20053;-71
2021/12/16 16:16:44;;;;;;;109.93;42.42;;;;;;;;;;5037397;28;20390;-72
2021/12/16 16:19:11;;;;;;;120.75;43.20;;;;;;;;;;5058649;28;20458;-73
2021/12/16 16:21:39;;;;;;;131.68;46.47;;;;;;;;;;5040286;28;20396;-73
2021/12/16 16:24:07;;;;;;;131.63;46.95;;;;;;;;;;5040301;28;20067;-74
2021/12/16 16:26:34;;;;;;;135.27;46.20;;;;;;;;;;5042352;28;20025;-74
2021/12/16 16:29:04;;;;;;;130.93;52.35;;;;;;;;;;5039214;28;20021;-70
2021/12/16 16:31:32;;;;;;;125.63;46.93;;;;;;;;;;5044690;28;20025;-72
2021/12/16 16:33:58;;;;;;;126.05;46.03;;;;;;;;;;5038761;28;20029;-71
2021/12/16 16:36:25;;;;;;;121.45;47.35;;;;;;;;;;5035320;28;20021;-71
2021/12/16 16:38:57;;;;;;;126.95;47.83;;;;;;;;;;5041641;28;20483;-71
2021/12/16 16:41:30;;;;;;;112.22;46.50;;;;;;;;;;5042282;28;20136;-71
2021/12/16 16:44:10;;;;;;;111.65;44.45;;;;;;;;;;5044047;28;20405;-71
2021/12/16 16:46:43;;;;;;;114.78;44.83;;;;;;;;;;5041632;28;20029;-71
2021/12/16 16:49:13;;;;;;;110.07;43.97;;;;;;;;;;5040305;28;20057;-72
2021/12/16 16:51:39;;;;;;;127.00;48.97;;;;;;;;;;5043963;28;20922;-72
2021/12/16 16:54:18;;;;;;;109.78;44.90;;;;;;;;;;5048790;28;20108;-71
2021/12/16 16:56:44;;;;;;;92.35;37.35;;;;;;;;;;5041884;28;20033;-70
2021/12/16 16:59:11;;;;;;;65.97;29.45;;;;;;;;;;5041914;28;20467;-70
2021/12/16 17:01:38;;;;;;;66.30;25.20;;;;;;;;;;5041835;28;20037;-72
2021/12/16 17:04:06;;;;;;;72.75;22.83;;;;;;;;;;5038741;28;20021;-72
2021/12/16 17:06:33;;;;;;;106.82;19.13;;;;;;;;;;5037618;28;20028;-72
2021/12/16 17:09:00;;;;;;;57.10;17.30;;;;;;;;;;5046013;28;20083;-71
2021/12/16 17:11:27;;;;;;;219.85;27.02;;;;;;;;;;5046116;28;20033;-74
2021/12/16 17:14:20;;;;;;;86.75;22.17;;;;;;;;;;5037848;28;20029;-70
2021/12/16 17:19:46;;;;;;;105.72;24.80;;;;;;;;;;5039447;28;20036;-71
2021/12/16 17:22:23;;;;;;;67.80;22.52;;;;;;;;;;5041989;28;20590;-72
2021/12/16 17:24:50;;;;;;;54.85;22.55;;;;;;;;;;5035404;28;20022;-71
2021/12/16 17:27:17;;;;;;;55.38;22.65;;;;;;;;;;5037637;28;20065;-72
2021/12/16 17:29:55;;;;;;;67.07;25.77;;;;;;;;;;5038526;28;20087;-72
2021/12/16 17:32:23;;;;;;;124.60;27.90;;;;;;;;;;5039004;28;20041;-72
2021/12/16 17:34:51;;;;;;;226.70;31.98;;;;;;;;;;5038595;28;20052;-71
2021/12/16 17:37:36;;;;;;;52.80;21.02;;;;;;;;;;5033902;28;20025;-73
2021/12/16 17:40:16;;;;;;;70.03;25.10;;;;;;;;;;5039766;28;20022;-72
2021/12/16 17:42:44;;;;;;;64.88;26.00;;;;;;;;;;5042992;28;20025;-70
2021/12/16 17:45:12;;;;;;;159.45;29.73;;;;;;;;;;5038646;28;20026;-71
2021/12/16 17:47:39;;;;;;;64.93;27.15;;;;;;;;;;5055133;28;20037;-71
2021/12/16 17:50:11;;;;;;;109.43;29.95;;;;;;;;;;5037487;28;20037;-73
2021/12/16 17:52:37;;;;;;;53.47;25.38;;;;;;;;;;5040711;28;20033;-71
2021/12/16 17:55:10;;;;;;;60.38;23.63;;;;;;;;;;5042417;28;20033;-71
2021/12/16 17:57:41;;;;;;;54.38;25.42;;;;;;;;;;5048740;28;20028;-72
2021/12/16 18:00:10;;;;;;;50.78;22.13;;;;;;;;;;5041941;28;20030;-71
2021/12/16 18:02:43;;;;;;;47.15;24.65;;;;;;;;;;5045127;28;20715;-72
2021/12/16 18:05:09;;;;;;;64.70;27.83;;;;;;;;;;5045193;28;20108;-71
2021/12/16 18:07:39;;;;;;;79.10;31.25;;;;;;;;;;5025887;28;20033;-73
2021/12/16 18:10:05;;;;;;;60.47;26.15;;;;;;;;;;5045645;28;20036;-72
2021/12/16 18:12:32;;;;;;;182.98;37.35;;;;;;;;;;5050879;28;20068;-72
2021/12/16 18:15:03;;;;;;;101.30;29.42;;;;;;;;;;5045106;28;20057;-71
2021/12/16 18:17:34;;;;;;;91.38;26.10;;;;;;;;;;5039976;28;20082;-72
2021/12/16 18:20:06;;;;;;;76.65;26.25;;;;;;;;;;5040067;28;20037;-72
2021/12/16 18:22:34;;;;;;;151.30;25.73;;;;;;;;;;5039980;28;20025;-70
2021/12/16 18:25:09;;;;;;;174.93;26.30;;;;;;;;;;5045766;28;20049;-70